sensor_id;sensor_type;location;lat;lon;timestamp;pressure;altitude;pressure_sealevel;temperature;humidity
12077;BME280;12420;42.676;23.262;2023-02-18T00:01:16;95234.09;;;5.03;69.94
12077;BME280;12420;42.676;23.262;2023-02-18T00:03:45;95296.41;;;5.47;70.06
12077;BME280;12420;42.676;23.262;2023-02-18T00:06:13;95292.44;;;5.18;70.59
12077;BME280;12420;42.676;23.262;2023-02-18T00:08:43;95278.06;;;5.23;70.38
12077;BME280;12420;42.676;23.262;2023-02-18T00:11:10;95270.88;;;5.26;70.57
12077;BME280;12420;42.676;23.262;2023-02-18T00:13:37;95265.41;;;5.11;70.31
12077;BME280;12420;42.676;23.262;2023-02-18T00:16:07;95233.84;;;4.71;72.30
12077;BME280;12420;42.676;23.262;2023-02-18T00:18:34;95232.03;;;4.83;72.67
12077;BME280;12420;42.676;23.262;2023-02-18T00:21:04;95272.78;;;5.05;71.33
12077;BME280;12420;42.676;23.262;2023-02-18T00:23:32;95262.69;;;4.96;71.94
12077;BME280;12420;42.676;23.262;2023-02-18T00:26:02;95268.25;;;5.02;72.45
12077;BME280;12420;42.676;23.262;2023-02-18T00:28:30;95255.00;;;4.86;72.49
12077;BME280;12420;42.676;23.262;2023-02-18T00:30:57;95238.97;;;4.78;72.93
12077;BME280;12420;42.676;23.262;2023-02-18T00:33:24;95261.44;;;4.83;73.35
12077;BME280;12420;42.676;23.262;2023-02-18T00:35:51;95235.56;;;4.84;72.65
12077;BME280;12420;42.676;23.262;2023-02-18T00:38:18;95230.16;;;4.60;73.59
12077;BME280;12420;42.676;23.262;2023-02-18T00:40:46;95241.22;;;4.35;75.03
12077;BME280;12420;42.676;23.262;2023-02-18T00:43:14;95258.81;;;4.59;74.30
12077;BME280;12420;42.676;23.262;2023-02-18T00:45:41;95220.50;;;4.49;74.14
12077;BME280;12420;42.676;23.262;2023-02-18T00:48:08;95238.19;;;4.33;75.26
12077;BME280;12420;42.676;23.262;2023-02-18T00:50:34;95205.22;;;4.28;75.17
12077;BME280;12420;42.676;23.262;2023-02-18T00:53:02;95236.47;;;4.21;76.66
12077;BME280;12420;42.676;23.262;2023-02-18T00:55:29;95250.66;;;4.34;76.54
12077;BME280;12420;42.676;23.262;2023-02-18T00:57:57;95244.25;;;4.38;76.61
12077;BME280;12420;42.676;23.262;2023-02-18T01:00:26;95243.78;;;4.54;76.37
12077;BME280;12420;42.676;23.262;2023-02-18T01:02:53;95243.09;;;4.29;76.69
12077;BME280;12420;42.676;23.262;2023-02-18T01:05:20;95246.34;;;4.43;77.06
12077;BME280;12420;42.676;23.262;2023-02-18T01:07:46;95257.94;;;4.52;75.68
12077;BME280;12420;42.676;23.262;2023-02-18T01:10:14;95226.38;;;4.42;75.90
12077;BME280;12420;42.676;23.262;2023-02-18T01:12:40;95238.47;;;4.65;75.71
12077;BME280;12420;42.676;23.262;2023-02-18T01:15:08;95225.53;;;4.66;75.83
12077;BME280;12420;42.676;23.262;2023-02-18T01:17:36;95223.09;;;4.53;76.12
12077;BME280;12420;42.676;23.262;2023-02-18T01:20:05;95225.34;;;4.69;76.10
12077;BME280;12420;42.676;23.262;2023-02-18T01:22:32;95184.47;;;4.12;76.23
12077;BME280;12420;42.676;23.262;2023-02-18T01:24:59;95232.25;;;4.65;75.74
12077;BME280;12420;42.676;23.262;2023-02-18T01:27:25;95222.97;;;4.32;77.02
12077;BME280;12420;42.676;23.262;2023-02-18T01:29:52;95240.56;;;4.55;76.70
12077;BME280;12420;42.676;23.262;2023-02-18T01:32:19;95238.09;;;4.57;76.14
12077;BME280;12420;42.676;23.262;2023-02-18T01:34:47;95217.78;;;4.64;75.17
12077;BME280;12420;42.676;23.262;2023-02-18T01:37:14;95176.94;;;4.37;74.86
12077;BME280;12420;42.676;23.262;2023-02-18T01:39:41;95205.69;;;4.56;74.35
12077;BME280;12420;42.676;23.262;2023-02-18T01:42:17;95182.06;;;4.44;73.67
12077;BME280;12420;42.676;23.262;2023-02-18T01:44:45;95244.91;;;4.92;74.00
12077;BME280;12420;42.676;23.262;2023-02-18T01:47:13;95233.00;;;4.80;73.99
12077;BME280;12420;42.676;23.262;2023-02-18T01:49:40;95243.13;;;4.89;74.19
12077;BME280;12420;42.676;23.262;2023-02-18T01:52:15;95214.66;;;4.71;73.96
12077;BME280;12420;42.676;23.262;2023-02-18T01:54:44;95237.44;;;4.92;74.12
12077;BME280;12420;42.676;23.262;2023-02-18T01:57:15;95253.69;;;4.96;74.60
12077;BME280;12420;42.676;23.262;2023-02-18T01:59:48;95251.72;;;4.96;74.52
12077;BME280;12420;42.676;23.262;2023-02-18T02:02:23;95259.84;;;4.91;74.56
12077;BME280;12420;42.676;23.262;2023-02-18T02:04:51;95246.41;;;4.78;74.18
12077;BME280;12420;42.676;23.262;2023-02-18T02:07:22;95260.31;;;4.89;73.97
12077;BME280;12420;42.676;23.262;2023-02-18T02:09:51;95242.00;;;4.66;74.84
12077;BME280;12420;42.676;23.262;2023-02-18T02:12:35;95243.69;;;4.63;75.90
12077;BME280;12420;42.676;23.262;2023-02-18T02:15:23;95236.88;;;4.44;77.24
12077;BME280;12420;42.676;23.262;2023-02-18T02:18:06;95248.06;;;4.16;79.95
12077;BME280;12420;42.676;23.262;2023-02-18T02:24:24;95228.53;;;4.23;79.62
12077;BME280;12420;42.676;23.262;2023-02-18T02:27:09;95233.56;;;4.40;78.98
12077;BME280;12420;42.676;23.262;2023-02-18T02:30:12;95244.44;;;4.49;78.81
12077;BME280;12420;42.676;23.262;2023-02-18T02:33:16;95234.72;;;4.48;77.81
12077;BME280;12420;42.676;23.262;2023-02-18T02:35:53;95210.78;;;4.33;77.77
12077;BME280;12420;42.676;23.262;2023-02-18T02:38:29;95231.31;;;4.53;77.95
12077;BME280;12420;42.676;23.262;2023-02-18T02:41:04;95212.88;;;4.53;77.87
12077;BME280;12420;42.676;23.262;2023-02-18T02:43:45;95225.72;;;4.62;76.84
12077;BME280;12420;42.676;23.262;2023-02-18T02:46:19;95213.78;;;4.65;76.70
12077;BME280;12420;42.676;23.262;2023-02-18T02:48:53;95212.28;;;4.64;77.46
12077;BME280;12420;42.676;23.262;2023-02-18T02:51:28;95195.66;;;4.38;78.08
12077;BME280;12420;42.676;23.262;2023-02-18T02:54:09;95211.84;;;4.51;77.87
12077;BME280;12420;42.676;23.262;2023-02-18T02:56:36;95205.03;;;4.46;78.63
12077;BME280;12420;42.676;23.262;2023-02-18T02:59:06;95200.28;;;4.47;77.37
12077;BME280;12420;42.676;23.262;2023-02-18T03:01:43;95224.13;;;4.41;77.01
12077;BME280;12420;42.676;23.262;2023-02-18T03:04:38;95226.28;;;4.66;77.13
12077;BME280;12420;42.676;23.262;2023-02-18T03:07:23;95240.00;;;4.66;77.10
12077;BME280;12420;42.676;23.262;2023-02-18T03:12:47;95218.81;;;4.37;78.39
12077;BME280;12420;42.676;23.262;2023-02-18T03:15:21;95232.13;;;4.44;78.01
12077;BME280;12420;42.676;23.262;2023-02-18T03:17:54;95233.47;;;4.34;78.87
12077;BME280;12420;42.676;23.262;2023-02-18T03:20:26;95244.59;;;4.16;80.41
12077;BME280;12420;42.676;23.262;2023-02-18T03:22:56;95230.19;;;4.06;81.20
12077;BME280;12420;42.676;23.262;2023-02-18T03:25:24;95244.75;;;3.97;81.37
12077;BME280;12420;42.676;23.262;2023-02-18T03:27:52;95246.69;;;3.97;82.11
12077;BME280;12420;42.676;23.262;2023-02-18T03:30:24;95187.56;;;3.51;81.98
12077;BME280;12420;42.676;23.262;2023-02-18T03:32:54;95242.81;;;3.88;82.02
12077;BME280;12420;42.676;23.262;2023-02-18T03:35:23;95262.88;;;4.09;81.47
12077;BME280;12420;42.676;23.262;2023-02-18T03:37:55;95226.28;;;3.83;81.14
12077;BME280;12420;42.676;23.262;2023-02-18T03:40:25;95270.44;;;4.00;81.90
12077;BME280;12420;42.676;23.262;2023-02-18T03:42:53;95276.66;;;3.76;82.60
12077;BME280;12420;42.676;23.262;2023-02-18T03:45:20;95283.31;;;3.84;83.75
12077;BME280;12420;42.676;23.262;2023-02-18T03:47:47;95249.75;;;3.51;83.28
12077;BME280;12420;42.676;23.262;2023-02-18T03:50:13;95275.44;;;3.77;84.40
12077;BME280;12420;42.676;23.262;2023-02-18T03:52:40;95283.16;;;3.64;84.92
12077;BME280;12420;42.676;23.262;2023-02-18T03:55:10;95263.44;;;3.51;84.97
12077;BME280;12420;42.676;23.262;2023-02-18T03:57:37;95283.47;;;3.81;84.19
12077;BME280;12420;42.676;23.262;2023-02-18T04:00:05;95297.41;;;3.92;83.01
12077;BME280;12420;42.676;23.262;2023-02-18T04:02:33;95280.59;;;3.84;83.52
12077;BME280;12420;42.676;23.262;2023-02-18T04:05:00;95265.78;;;3.67;83.73
12077;BME280;12420;42.676;23.262;2023-02-18T04:07:28;95257.72;;;3.63;83.66
12077;BME280;12420;42.676;23.262;2023-02-18T04:09:56;95269.63;;;3.84;84.80
12077;BME280;12420;42.676;23.262;2023-02-18T04:12:26;95262.47;;;3.87;84.06
12077;BME280;12420;42.676;23.262;2023-02-18T04:14:53;95262.47;;;3.87;84.62
12077;BME280;12420;42.676;23.262;2023-02-18T04:17:20;95256.44;;;3.98;83.19
12077;BME280;12420;42.676;23.262;2023-02-18T04:19:47;95263.78;;;3.91;84.01
12077;BME280;12420;42.676;23.262;2023-02-18T04:22:13;95257.38;;;3.95;84.00
12077;BME280;12420;42.676;23.262;2023-02-18T04:24:40;95257.44;;;3.85;84.09
12077;BME280;12420;42.676;23.262;2023-02-18T04:27:09;95256.78;;;3.90;84.72
12077;BME280;12420;42.676;23.262;2023-02-18T04:29:39;95238.28;;;3.85;84.26
12077;BME280;12420;42.676;23.262;2023-02-18T04:32:06;95230.25;;;3.82;84.07
12077;BME280;12420;42.676;23.262;2023-02-18T04:34:33;95230.69;;;3.80;85.03
12077;BME280;12420;42.676;23.262;2023-02-18T04:37:00;95233.03;;;3.73;85.25
12077;BME280;12420;42.676;23.262;2023-02-18T04:39:26;95192.22;;;3.36;85.00
12077;BME280;12420;42.676;23.262;2023-02-18T04:41:53;95233.03;;;3.48;85.65
12077;BME280;12420;42.676;23.262;2023-02-18T04:44:20;95211.97;;;3.40;85.51
12077;BME280;12420;42.676;23.262;2023-02-18T04:46:48;95240.84;;;3.65;85.40
12077;BME280;12420;42.676;23.262;2023-02-18T04:49:15;95249.34;;;3.67;85.75
12077;BME280;12420;42.676;23.262;2023-02-18T04:51:42;95226.47;;;3.55;86.33
12077;BME280;12420;42.676;23.262;2023-02-18T04:54:08;95234.72;;;3.46;86.25
12077;BME280;12420;42.676;23.262;2023-02-18T04:56:35;95265.31;;;3.68;86.43
12077;BME280;12420;42.676;23.262;2023-02-18T04:59:02;95263.03;;;3.67;86.26
12077;BME280;12420;42.676;23.262;2023-02-18T05:01:29;95265.59;;;3.70;86.03
12077;BME280;12420;42.676;23.262;2023-02-18T05:03:57;95273.34;;;3.72;85.58
12077;BME280;12420;42.676;23.262;2023-02-18T05:06:24;95270.13;;;3.74;85.57
12077;BME280;12420;42.676;23.262;2023-02-18T05:08:51;95288.66;;;3.79;85.71
12077;BME280;12420;42.676;23.262;2023-02-18T05:11:17;95282.53;;;3.84;84.79
12077;BME280;12420;42.676;23.262;2023-02-18T05:13:44;95291.53;;;3.84;84.98
12077;BME280;12420;42.676;23.262;2023-02-18T05:16:11;95291.88;;;3.77;85.86
12077;BME280;12420;42.676;23.262;2023-02-18T05:18:38;95286.28;;;3.72;85.77
12077;BME280;12420;42.676;23.262;2023-02-18T05:21:06;95284.66;;;3.65;86.61
12077;BME280;12420;42.676;23.262;2023-02-18T05:23:33;95267.59;;;3.70;86.73
12077;BME280;12420;42.676;23.262;2023-02-18T05:26:00;95262.63;;;3.59;87.31
12077;BME280;12420;42.676;23.262;2023-02-18T05:28:27;95270.31;;;3.70;86.76
12077;BME280;12420;42.676;23.262;2023-02-18T05:30:53;95272.41;;;3.75;86.15
12077;BME280;12420;42.676;23.262;2023-02-18T05:33:22;95246.53;;;3.76;86.27
12077;BME280;12420;42.676;23.262;2023-02-18T05:35:48;95230.50;;;3.69;86.15
12077;BME280;12420;42.676;23.262;2023-02-18T05:38:17;95229.19;;;3.79;86.14
12077;BME280;12420;42.676;23.262;2023-02-18T05:40:44;95260.78;;;3.89;85.72
12077;BME280;12420;42.676;23.262;2023-02-18T05:43:11;95240.72;;;3.83;85.83
12077;BME280;12420;42.676;23.262;2023-02-18T05:45:37;95246.13;;;3.92;85.46
12077;BME280;12420;42.676;23.262;2023-02-18T05:48:04;95255.16;;;4.08;85.00
12077;BME280;12420;42.676;23.262;2023-02-18T05:50:31;95244.75;;;3.97;85.94
12077;BME280;12420;42.676;23.262;2023-02-18T05:52:58;95263.63;;;3.95;86.28
12077;BME280;12420;42.676;23.262;2023-02-18T05:55:26;95279.50;;;4.06;85.28
12077;BME280;12420;42.676;23.262;2023-02-18T05:57:52;95267.72;;;4.14;85.60
12077;BME280;12420;42.676;23.262;2023-02-18T06:00:20;95255.00;;;3.87;84.88
12077;BME280;12420;42.676;23.262;2023-02-18T06:02:46;95294.34;;;4.14;85.09
12077;BME280;12420;42.676;23.262;2023-02-18T06:05:13;95294.28;;;4.23;85.31
12077;BME280;12420;42.676;23.262;2023-02-18T06:07:40;95291.66;;;4.29;84.07
12077;BME280;12420;42.676;23.262;2023-02-18T06:10:09;95257.53;;;4.30;82.72
12077;BME280;12420;42.676;23.262;2023-02-18T06:12:38;95285.84;;;4.51;82.58
12077;BME280;12420;42.676;23.262;2023-02-18T06:15:05;95278.47;;;4.57;83.75
12077;BME280;12420;42.676;23.262;2023-02-18T06:17:32;95299.75;;;4.62;83.08
12077;BME280;12420;42.676;23.262;2023-02-18T06:19:59;95273.34;;;4.50;83.10
12077;BME280;12420;42.676;23.262;2023-02-18T06:22:26;95259.25;;;4.42;82.62
12077;BME280;12420;42.676;23.262;2023-02-18T06:24:53;95282.34;;;4.65;81.86
12077;BME280;12420;42.676;23.262;2023-02-18T06:27:20;95272.25;;;4.71;82.88
12077;BME280;12420;42.676;23.262;2023-02-18T06:29:48;95276.59;;;4.78;81.51
12077;BME280;12420;42.676;23.262;2023-02-18T06:32:14;95270.56;;;4.89;80.06
12077;BME280;12420;42.676;23.262;2023-02-18T06:34:41;95274.69;;;4.99;81.70
12077;BME280;12420;42.676;23.262;2023-02-18T06:37:08;95264.28;;;5.03;80.47
12077;BME280;12420;42.676;23.262;2023-02-18T06:39:35;95234.97;;;4.94;79.27
12077;BME280;12420;42.676;23.262;2023-02-18T06:42:02;95258.97;;;5.14;79.75
12077;BME280;12420;42.676;23.262;2023-02-18T06:44:29;95269.16;;;5.29;79.09
12077;BME280;12420;42.676;23.262;2023-02-18T06:47:01;95272.38;;;5.42;77.06
12077;BME280;12420;42.676;23.262;2023-02-18T06:49:28;95271.94;;;5.49;77.30
12077;BME280;12420;42.676;23.262;2023-02-18T06:51:55;95242.06;;;5.36;76.28
12077;BME280;12420;42.676;23.262;2023-02-18T06:54:22;95276.25;;;5.71;76.63
12077;BME280;12420;42.676;23.262;2023-02-18T06:56:49;95237.72;;;5.65;75.32
12077;BME280;12420;42.676;23.262;2023-02-18T06:59:16;95263.38;;;5.62;76.75
12077;BME280;12420;42.676;23.262;2023-02-18T07:01:43;95270.34;;;5.78;75.52
12077;BME280;12420;42.676;23.262;2023-02-18T07:04:11;95249.06;;;5.73;75.38
12077;BME280;12420;42.676;23.262;2023-02-18T07:06:38;95253.72;;;5.87;73.97
12077;BME280;12420;42.676;23.262;2023-02-18T07:09:05;95242.41;;;5.79;73.50
12077;BME280;12420;42.676;23.262;2023-02-18T07:11:31;95235.06;;;5.91;72.62
12077;BME280;12420;42.676;23.262;2023-02-18T07:13:58;95259.06;;;6.11;74.21
12077;BME280;12420;42.676;23.262;2023-02-18T07:16:25;95245.94;;;6.21;72.66
12077;BME280;12420;42.676;23.262;2023-02-18T07:18:52;95248.94;;;6.23;71.58
12077;BME280;12420;42.676;23.262;2023-02-18T07:21:20;95249.81;;;6.35;70.98
12077;BME280;12420;42.676;23.262;2023-02-18T07:23:47;95239.56;;;6.35;71.97
12077;BME280;12420;42.676;23.262;2023-02-18T07:26:14;95250.81;;;6.11;71.39
12077;BME280;12420;42.676;23.262;2023-02-18T07:28:41;95249.88;;;6.40;71.26
12077;BME280;12420;42.676;23.262;2023-02-18T07:31:08;95238.16;;;6.45;72.00
12077;BME280;12420;42.676;23.262;2023-02-18T07:33:39;95223.38;;;6.17;72.76
12077;BME280;12420;42.676;23.262;2023-02-18T07:36:08;95206.34;;;6.13;72.29
12077;BME280;12420;42.676;23.262;2023-02-18T07:38:36;95265.47;;;6.49;71.59
12077;BME280;12420;42.676;23.262;2023-02-18T07:41:03;95248.41;;;6.45;70.96
12077;BME280;12420;42.676;23.262;2023-02-18T07:43:32;95165.88;;;5.93;69.54
12077;BME280;12420;42.676;23.262;2023-02-18T07:46:04;95291.72;;;6.76;70.08
12077;BME280;12420;42.676;23.262;2023-02-18T07:48:32;95292.00;;;6.78;71.40
12077;BME280;12420;42.676;23.262;2023-02-18T07:51:00;95299.34;;;6.87;69.52
12077;BME280;12420;42.676;23.262;2023-02-18T07:53:27;95290.72;;;7.00;68.48
12077;BME280;12420;42.676;23.262;2023-02-18T07:55:58;95284.00;;;7.06;67.64
12077;BME280;12420;42.676;23.262;2023-02-18T07:58:27;95262.22;;;7.03;65.69
12077;BME280;12420;42.676;23.262;2023-02-18T08:00:54;95288.28;;;7.45;65.31
12077;BME280;12420;42.676;23.262;2023-02-18T08:03:23;95285.13;;;7.57;64.29
12077;BME280;12420;42.676;23.262;2023-02-18T08:05:55;95276.16;;;7.68;64.74
12077;BME280;12420;42.676;23.262;2023-02-18T08:08:24;95221.94;;;7.43;64.90
12077;BME280;12420;42.676;23.262;2023-02-18T08:10:59;95277.53;;;7.84;64.06
12077;BME280;12420;42.676;23.262;2023-02-18T08:13:27;95264.97;;;7.77;62.89
12077;BME280;12420;42.676;23.262;2023-02-18T08:15:55;95284.38;;;8.00;62.84
12077;BME280;12420;42.676;23.262;2023-02-18T08:18:24;95258.59;;;8.09;61.77
12077;BME280;12420;42.676;23.262;2023-02-18T08:20:51;95281.75;;;8.34;60.62
12077;BME280;12420;42.676;23.262;2023-02-18T08:23:19;95280.53;;;8.35;61.03
12077;BME280;12420;42.676;23.262;2023-02-18T08:25:48;95254.59;;;8.10;62.40
12077;BME280;12420;42.676;23.262;2023-02-18T08:28:19;95239.09;;;8.23;62.40
12077;BME280;12420;42.676;23.262;2023-02-18T08:30:55;95252.91;;;8.29;61.92
12077;BME280;12420;42.676;23.262;2023-02-18T08:33:23;95247.94;;;8.44;62.16
12077;BME280;12420;42.676;23.262;2023-02-18T08:35:54;95257.28;;;8.64;60.19
12077;BME280;12420;42.676;23.262;2023-02-18T08:38:22;95260.78;;;8.59;61.00
12077;BME280;12420;42.676;23.262;2023-02-18T08:40:58;95259.56;;;8.65;60.47
12077;BME280;12420;42.676;23.262;2023-02-18T08:43:27;95251.03;;;8.75;61.17
12077;BME280;12420;42.676;23.262;2023-02-18T08:45:57;95246.28;;;8.92;60.00
12077;BME280;12420;42.676;23.262;2023-02-18T08:48:26;95247.06;;;9.09;59.21
12077;BME280;12420;42.676;23.262;2023-02-18T08:50:52;95249.53;;;9.13;58.89
12077;BME280;12420;42.676;23.262;2023-02-18T08:53:20;95226.22;;;9.08;58.14
12077;BME280;12420;42.676;23.262;2023-02-18T08:55:46;95275.94;;;9.37;57.63
12077;BME280;12420;42.676;23.262;2023-02-18T08:58:13;95252.81;;;9.40;57.31
12077;BME280;12420;42.676;23.262;2023-02-18T09:00:44;95274.66;;;9.54;58.18
12077;BME280;12420;42.676;23.262;2023-02-18T09:03:12;95267.84;;;9.61;58.60
12077;BME280;12420;42.676;23.262;2023-02-18T09:05:40;95267.59;;;9.65;59.31
12077;BME280;12420;42.676;23.262;2023-02-18T09:08:07;95262.03;;;9.76;58.34
12077;BME280;12420;42.676;23.262;2023-02-18T09:10:34;95257.28;;;9.65;58.50
12077;BME280;12420;42.676;23.262;2023-02-18T09:13:01;95276.88;;;9.78;58.78
12077;BME280;12420;42.676;23.262;2023-02-18T09:15:28;95275.09;;;9.92;58.48
12077;BME280;12420;42.676;23.262;2023-02-18T09:17:57;95257.75;;;9.81;57.94
12077;BME280;12420;42.676;23.262;2023-02-18T09:20:25;95234.41;;;9.76;58.44
12077;BME280;12420;42.676;23.262;2023-02-18T09:22:52;95256.00;;;9.83;58.57
12077;BME280;12420;42.676;23.262;2023-02-18T09:25:18;95218.81;;;9.78;57.61
12077;BME280;12420;42.676;23.262;2023-02-18T09:27:45;95261.19;;;10.09;57.24
12077;BME280;12420;42.676;23.262;2023-02-18T09:30:13;95230.28;;;10.11;57.05
12077;BME280;12420;42.676;23.262;2023-02-18T09:32:41;95252.09;;;10.31;55.30
12077;BME280;12420;42.676;23.262;2023-02-18T09:35:09;95227.44;;;10.22;55.14
12077;BME280;12420;42.676;23.262;2023-02-18T09:37:36;95242.25;;;10.36;54.97
12077;BME280;12420;42.676;23.262;2023-02-18T09:40:05;95231.66;;;10.40;54.87
12077;BME280;12420;42.676;23.262;2023-02-18T09:42:34;95241.94;;;10.51;55.18
12077;BME280;12420;42.676;23.262;2023-02-18T09:45:03;95244.00;;;10.80;53.87
12077;BME280;12420;42.676;23.262;2023-02-18T09:47:34;95232.28;;;10.99;54.16
12077;BME280;12420;42.676;23.262;2023-02-18T09:50:05;95186.47;;;10.98;52.41
12077;BME280;12420;42.676;23.262;2023-02-18T09:52:35;95235.47;;;11.69;50.32
12077;BME280;12420;42.676;23.262;2023-02-18T09:55:16;95234.53;;;11.91;51.12
12077;BME280;12420;42.676;23.262;2023-02-18T09:57:45;95237.91;;;12.03;48.24
12077;BME280;12420;42.676;23.262;2023-02-18T10:00:16;95226.72;;;12.08;48.70
12077;BME280;12420;42.676;23.262;2023-02-18T10:02:53;95227.44;;;12.14;48.58
12077;BME280;12420;42.676;23.262;2023-02-18T10:05:22;95157.38;;;11.89;47.93
12077;BME280;12420;42.676;23.262;2023-02-18T10:07:55;95212.69;;;12.44;47.65
12077;BME280;12420;42.676;23.262;2023-02-18T10:10:32;95201.38;;;12.74;47.70
12077;BME280;12420;42.676;23.262;2023-02-18T10:13:03;95208.44;;;13.08;47.13
12077;BME280;12420;42.676;23.262;2023-02-18T10:15:31;95183.50;;;12.89;46.40
12077;BME280;12420;42.676;23.262;2023-02-18T10:18:00;95205.97;;;13.23;45.01
12077;BME280;12420;42.676;23.262;2023-02-18T10:20:29;95209.41;;;13.29;44.41
12077;BME280;12420;42.676;23.262;2023-02-18T10:23:00;95214.03;;;13.40;45.90
12077;BME280;12420;42.676;23.262;2023-02-18T10:25:30;95197.22;;;13.32;44.56
12077;BME280;12420;42.676;23.262;2023-02-18T10:27:59;95207.44;;;13.70;43.90
12077;BME280;12420;42.676;23.262;2023-02-18T10:30:30;95204.56;;;13.75;42.92
12077;BME280;12420;42.676;23.262;2023-02-18T10:33:01;95193.84;;;13.93;44.52
12077;BME280;12420;42.676;23.262;2023-02-18T10:35:39;95191.81;;;14.06;42.20
12077;BME280;12420;42.676;23.262;2023-02-18T10:38:13;95159.16;;;13.94;39.53
12077;BME280;12420;42.676;23.262;2023-02-18T10:40:53;95168.69;;;14.11;40.34
12077;BME280;12420;42.676;23.262;2023-02-18T10:43:27;95181.91;;;14.45;37.76
12077;BME280;12420;42.676;23.262;2023-02-18T10:46:01;95190.31;;;14.66;38.54
12077;BME280;12420;42.676;23.262;2023-02-18T10:48:54;95177.38;;;14.90;36.65
12077;BME280;12420;42.676;23.262;2023-02-18T10:51:28;95175.34;;;15.11;36.90
12077;BME280;12420;42.676;23.262;2023-02-18T10:53:59;95145.16;;;15.02;36.40
12077;BME280;12420;42.676;23.262;2023-02-18T10:56:37;95169.13;;;15.26;34.97
12077;BME280;12420;42.676;23.262;2023-02-18T10:59:09;95136.56;;;15.21;35.65
12077;BME280;12420;42.676;23.262;2023-02-18T11:01:36;95144.66;;;15.32;35.34
12077;BME280;12420;42.676;23.262;2023-02-18T11:04:11;95155.25;;;15.55;35.47
12077;BME280;12420;42.676;23.262;2023-02-18T11:06:39;95119.81;;;15.42;33.83
12077;BME280;12420;42.676;23.262;2023-02-18T11:09:24;95121.00;;;15.54;31.95
12077;BME280;12420;42.676;23.262;2023-02-18T11:11:58;95114.88;;;15.56;31.66
12077;BME280;12420;42.676;23.262;2023-02-18T11:14:41;95145.53;;;15.77;31.88
12077;BME280;12420;42.676;23.262;2023-02-18T11:17:21;95146.88;;;15.83;32.12
12077;BME280;12420;42.676;23.262;2023-02-18T11:19:56;95129.72;;;15.79;31.26
12077;BME280;12420;42.676;23.262;2023-02-18T11:22:25;95144.25;;;15.78;31.17
12077;BME280;12420;42.676;23.262;2023-02-18T11:24:57;95140.56;;;15.83;31.30
12077;BME280;12420;42.676;23.262;2023-02-18T11:27:30;95127.84;;;15.74;30.36
12077;BME280;12420;42.676;23.262;2023-02-18T11:30:00;95117.03;;;15.71;30.48
12077;BME280;12420;42.676;23.262;2023-02-18T11:32:28;95088.66;;;15.59;31.16
12077;BME280;12420;42.676;23.262;2023-02-18T11:34:57;95105.97;;;15.94;31.67
12077;BME280;12420;42.676;23.262;2023-02-18T11:37:24;95077.88;;;15.55;30.44
12077;BME280;12420;42.676;23.262;2023-02-18T11:39:53;95108.16;;;15.80;30.64
12077;BME280;12420;42.676;23.262;2023-02-18T11:42:24;95086.81;;;15.90;30.86
12077;BME280;12420;42.676;23.262;2023-02-18T11:44:53;95061.22;;;15.71;30.82
12077;BME280;12420;42.676;23.262;2023-02-18T11:47:23;95091.50;;;16.03;30.87
12077;BME280;12420;42.676;23.262;2023-02-18T11:50:14;95089.97;;;15.94;30.80
12077;BME280;12420;42.676;23.262;2023-02-18T11:52:43;95093.84;;;15.83;31.05
12077;BME280;12420;42.676;23.262;2023-02-18T11:55:16;95084.94;;;15.85;31.30
12077;BME280;12420;42.676;23.262;2023-02-18T11:57:48;95074.69;;;15.88;31.45
12077;BME280;12420;42.676;23.262;2023-02-18T12:00:22;95069.66;;;15.86;31.12
12077;BME280;12420;42.676;23.262;2023-02-18T12:02:51;95076.03;;;15.94;31.33
12077;BME280;12420;42.676;23.262;2023-02-18T12:05:22;95051.28;;;15.98;31.48
12077;BME280;12420;42.676;23.262;2023-02-18T12:07:51;95058.22;;;16.13;31.25
12077;BME280;12420;42.676;23.262;2023-02-18T12:10:25;95050.97;;;16.17;31.12
12077;BME280;12420;42.676;23.262;2023-02-18T12:13:01;95016.50;;;16.15;30.96
12077;BME280;12420;42.676;23.262;2023-02-18T12:15:36;95055.50;;;16.51;30.89
12077;BME280;12420;42.676;23.262;2023-02-18T12:18:21;95066.13;;;16.60;30.68
12077;BME280;12420;42.676;23.262;2023-02-18T12:21:17;95054.41;;;16.46;31.25
12077;BME280;12420;42.676;23.262;2023-02-18T12:23:57;95058.31;;;16.59;31.50
12077;BME280;12420;42.676;23.262;2023-02-18T12:26:31;95007.78;;;16.18;31.37
12077;BME280;12420;42.676;23.262;2023-02-18T12:29:16;95038.34;;;16.24;31.96
12077;BME280;12420;42.676;23.262;2023-02-18T12:31:58;95052.91;;;16.61;31.36
12077;BME280;12420;42.676;23.262;2023-02-18T12:34:47;95020.69;;;16.52;31.30
12077;BME280;12420;42.676;23.262;2023-02-18T12:37:35;95043.25;;;16.62;31.33
12077;BME280;12420;42.676;23.262;2023-02-18T12:40:21;95032.06;;;16.62;31.86
12077;BME280;12420;42.676;23.262;2023-02-18T12:42:57;95032.41;;;16.74;31.84
12077;BME280;12420;42.676;23.262;2023-02-18T12:45:40;95010.81;;;16.66;32.29
12077;BME280;12420;42.676;23.262;2023-02-18T12:48:30;95009.31;;;16.58;31.88
12077;BME280;12420;42.676;23.262;2023-02-18T12:54:13;95020.53;;;16.81;31.83
12077;BME280;12420;42.676;23.262;2023-02-18T12:56:56;95006.34;;;16.63;31.66
12077;BME280;12420;42.676;23.262;2023-02-18T13:02:44;95012.88;;;16.81;31.99
12077;BME280;12420;42.676;23.262;2023-02-18T13:05:25;95023.31;;;16.88;31.87
12077;BME280;12420;42.676;23.262;2023-02-18T13:08:05;95010.47;;;16.85;32.21
12077;BME280;12420;42.676;23.262;2023-02-18T13:10:54;95022.38;;;16.70;32.57
12077;BME280;12420;42.676;23.262;2023-02-18T13:13:25;94995.00;;;16.77;32.44
12077;BME280;12420;42.676;23.262;2023-02-18T13:15:57;95015.31;;;16.92;32.49
12077;BME280;12420;42.676;23.262;2023-02-18T13:18:29;95021.66;;;16.85;32.63
12077;BME280;12420;42.676;23.262;2023-02-18T13:20:59;95006.72;;;16.75;32.54
12077;BME280;12420;42.676;23.262;2023-02-18T13:23:32;95005.59;;;16.70;32.67
12077;BME280;12420;42.676;23.262;2023-02-18T13:26:03;95025.38;;;17.03;32.54
12077;BME280;12420;42.676;23.262;2023-02-18T13:28:36;94957.88;;;16.30;32.54